createdAt,value
2023-05-07T00:04:28.134Z,2.05
2023-05-07T00:09:35.145Z,2.10
2023-05-07T00:14:42.052Z,2.10
2023-05-07T00:19:50.080Z,2.40
2023-05-07T00:24:56.697Z,2.42
2023-05-07T00:30:04.125Z,2.33
2023-05-07T00:35:16.452Z,2.38
2023-05-07T00:40:23.332Z,1.80
2023-05-07T00:45:31.258Z,2.00
2023-05-07T00:50:39.559Z,2.15
2023-05-07T00:55:46.297Z,2.30
2023-05-07T01:00:53.181Z,2.47
2023-05-07T01:06:03.020Z,2.85
2023-05-07T01:11:10.773Z,1.80
2023-05-07T01:16:17.506Z,2.00
2023-05-07T01:21:29.403Z,1.90
2023-05-07T01:26:41.187Z,2.05
2023-05-07T01:31:50.062Z,1.60
2023-05-07T01:36:59.339Z,2.20
2023-05-07T01:42:08.275Z,1.90
2023-05-07T01:47:16.584Z,1.30
2023-05-07T01:52:23.053Z,1.27
2023-05-07T01:57:30.886Z,1.52
2023-05-07T02:02:37.877Z,1.58
2023-05-07T02:07:44.885Z,1.77
2023-05-07T02:12:56.635Z,1.30
2023-05-07T02:18:06.015Z,1.55
2023-05-07T02:23:13.076Z,1.10
2023-05-07T02:28:21.116Z,1.42
2023-05-07T02:38:47.714Z,1.70
2023-05-07T02:43:55.889Z,1.33
2023-05-07T02:49:02.903Z,1.13
2023-05-07T02:54:10.519Z,1.30
2023-05-07T02:59:18.448Z,1.05
2023-05-07T03:04:25.273Z,0.90
2023-05-07T03:09:32.164Z,0.80
2023-05-07T03:14:40.356Z,1.30
2023-05-07T03:19:46.885Z,0.70
2023-05-07T03:24:54.156Z,0.88
2023-05-07T03:30:02.684Z,1.13
2023-05-07T03:35:11.282Z,1.00
2023-05-07T03:40:19.433Z,0.73
2023-05-07T03:45:31.376Z,0.80
2023-05-07T03:50:50.103Z,1.15
2023-05-07T03:55:58.483Z,0.70
2023-05-07T04:01:07.958Z,0.70
2023-05-07T04:06:15.749Z,1.25
2023-05-07T04:16:32.239Z,0.90
2023-05-07T04:21:38.663Z,1.20
2023-05-07T04:26:45.125Z,0.90
2023-05-07T04:31:52.944Z,1.60
2023-05-07T04:37:02.282Z,0.77
2023-05-07T04:42:10.255Z,1.10
2023-05-07T04:47:18.242Z,0.80
2023-05-07T04:52:27.348Z,1.53
2023-05-07T04:57:35.216Z,1.20
2023-05-07T05:02:43.326Z,1.15
2023-05-07T05:07:53.056Z,0.88
2023-05-07T05:13:00.256Z,0.95
2023-05-07T05:18:10.393Z,1.23
2023-05-07T05:23:17.671Z,1.10
2023-05-07T05:28:24.370Z,1.63
2023-05-07T05:33:32.452Z,1.17
2023-05-07T05:38:43.454Z,1.42
2023-05-07T05:43:52.507Z,1.15
2023-05-07T05:49:01.160Z,1.15
2023-05-07T05:54:07.849Z,0.87
2023-05-07T05:59:15.002Z,1.30
2023-05-07T06:04:24.111Z,1.13
2023-05-07T06:09:30.578Z,1.20
2023-05-07T06:14:37.117Z,1.00
2023-05-07T06:19:45.365Z,1.08
2023-05-07T06:24:53.174Z,1.13
2023-05-07T06:30:02.623Z,1.02
2023-05-07T06:35:13.301Z,1.00
2023-05-07T06:40:21.376Z,1.20
2023-05-07T06:45:29.375Z,0.97
2023-05-07T06:50:38.552Z,0.80
2023-05-07T06:55:45.060Z,0.98
2023-05-07T07:00:52.926Z,1.00
2023-05-07T07:06:03.219Z,1.13
2023-05-07T07:11:13.019Z,1.15
2023-05-07T07:16:19.726Z,0.90
2023-05-07T07:21:28.033Z,0.90
2023-05-07T07:26:34.745Z,1.05
2023-05-07T07:31:42.104Z,1.00
2023-05-07T07:36:51.407Z,0.95
2023-05-07T07:41:59.749Z,0.95
2023-05-07T07:47:09.121Z,1.00
2023-05-07T07:52:17.229Z,1.33
2023-05-07T07:57:25.127Z,1.20
2023-05-07T08:02:31.932Z,1.33
2023-05-07T08:07:40.240Z,1.20
2023-05-07T08:12:46.985Z,1.10
2023-05-07T08:17:53.967Z,0.98
2023-05-07T08:23:02.297Z,1.00
2023-05-07T08:28:10.152Z,0.80
2023-05-07T08:33:18.916Z,1.02
2023-05-07T08:38:27.513Z,1.10
2023-05-07T08:43:36.281Z,1.23
2023-05-07T08:48:43.926Z,1.30
2023-05-07T08:53:55.803Z,1.10
2023-05-07T08:59:08.096Z,1.02
2023-05-07T09:04:17.936Z,1.05
2023-05-07T09:09:27.380Z,1.60
2023-05-07T09:14:35.714Z,1.10
2023-05-07T09:19:44.222Z,0.70
2023-05-07T09:24:53.781Z,1.05
2023-05-07T09:30:08.563Z,1.05
2023-05-07T09:35:23.028Z,1.10
2023-05-07T09:40:38.094Z,0.85
2023-05-07T09:45:52.810Z,1.20
2023-05-07T09:51:09.301Z,1.20
2023-05-07T09:56:20.414Z,1.15
2023-05-07T10:01:28.489Z,0.80
2023-05-07T10:06:36.308Z,0.88
2023-05-07T10:11:45.467Z,1.15
2023-05-07T10:16:54.152Z,0.80
2023-05-07T10:22:08.142Z,1.58
2023-05-07T10:27:24.094Z,1.00
2023-05-07T10:32:43.869Z,1.10
2023-05-07T10:37:56.954Z,0.88
2023-05-07T10:43:10.873Z,1.48
2023-05-07T10:48:37.964Z,0.85
2023-05-07T10:53:50.524Z,1.17
2023-05-07T10:59:43.515Z,1.00
2023-05-07T11:05:24.248Z,0.90
2023-05-07T11:10:55.114Z,1.20
2023-05-07T11:16:26.238Z,1.00
2023-05-07T11:21:46.053Z,1.13
2023-05-07T11:27:11.230Z,1.58
2023-05-07T11:32:26.244Z,0.77
2023-05-07T11:37:35.485Z,0.70
2023-05-07T11:42:45.095Z,0.88
2023-05-07T11:47:53.559Z,0.80
2023-05-07T11:53:00.389Z,0.80
2023-05-07T11:58:08.966Z,1.00
2023-05-07T12:03:19.453Z,1.52
2023-05-07T12:08:26.158Z,1.00
2023-05-07T12:13:33.345Z,1.17
2023-05-07T12:18:42.771Z,1.40
2023-05-07T12:23:50.537Z,1.17
2023-05-07T12:28:57.896Z,0.80
2023-05-07T12:34:07.753Z,1.00
2023-05-07T12:39:15.762Z,1.13
2023-05-07T12:44:24.838Z,1.08
2023-05-07T12:49:33.626Z,1.98
2023-05-07T12:54:41.778Z,1.10
2023-05-07T12:59:48.760Z,1.00
2023-05-07T13:04:57.426Z,0.70
2023-05-07T13:10:04.710Z,0.60
2023-05-07T13:15:13.575Z,1.13
2023-05-07T13:20:22.270Z,1.07
2023-05-07T13:25:29.139Z,1.20
2023-05-07T13:30:36.256Z,2.10
2023-05-07T13:35:45.000Z,1.80
2023-05-07T13:40:51.996Z,1.75
2023-05-07T13:45:59.290Z,1.80
2023-05-07T13:51:08.184Z,0.90
2023-05-07T13:56:15.626Z,1.15
2023-05-07T14:01:23.639Z,0.88
2023-05-07T14:06:33.193Z,0.77
2023-05-07T14:11:40.039Z,0.85
2023-05-07T14:16:48.511Z,1.20
2023-05-07T14:21:59.377Z,1.70
2023-05-07T14:27:07.100Z,1.63
2023-05-07T14:32:14.098Z,1.13
2023-05-07T14:37:25.708Z,0.90
2023-05-07T14:42:32.996Z,1.00
2023-05-07T14:47:40.136Z,1.30
2023-05-07T14:52:48.722Z,1.50
2023-05-07T14:57:55.696Z,0.98
2023-05-07T15:03:09.716Z,1.38
2023-05-07T15:08:18.350Z,1.30
2023-05-07T15:13:25.234Z,0.88
2023-05-07T15:18:32.090Z,1.00
2023-05-07T15:23:40.677Z,0.95
2023-05-07T15:28:47.550Z,0.93
2023-05-07T15:33:54.524Z,1.85
2023-05-07T15:39:05.660Z,1.75
2023-05-07T15:44:12.371Z,1.60
2023-05-07T15:49:20.355Z,2.10
2023-05-07T15:54:28.628Z,1.55
2023-05-07T15:59:36.598Z,1.43
2023-05-07T16:04:43.669Z,0.87
2023-05-07T16:09:51.818Z,1.98
2023-05-07T16:14:59.856Z,1.35
2023-05-07T16:20:09.520Z,4.20
2023-05-07T16:25:17.998Z,1.63
2023-05-07T16:30:25.045Z,2.63
2023-05-07T16:35:32.385Z,2.03
2023-05-07T16:40:42.204Z,2.00
2023-05-07T16:45:49.281Z,1.80
2023-05-07T16:50:57.951Z,1.63
2023-05-07T16:56:08.998Z,2.30
2023-05-07T17:01:16.909Z,3.42
2023-05-07T17:06:23.551Z,1.85
2023-05-07T17:11:34.258Z,3.30
2023-05-07T17:16:40.863Z,10.55
2023-05-07T17:21:47.525Z,13.63
2023-05-07T17:26:55.649Z,7.30
2023-05-07T17:32:02.894Z,5.65
2023-05-07T17:37:09.932Z,2.15
2023-05-07T17:42:18.550Z,1.77
2023-05-07T17:47:25.416Z,1.80
2023-05-07T17:52:32.932Z,1.85
2023-05-07T17:57:42.258Z,2.08
2023-05-07T18:02:49.284Z,1.92
2023-05-07T18:07:56.522Z,1.63
2023-05-07T18:13:05.193Z,1.65
2023-05-07T18:18:12.867Z,1.77
2023-05-07T18:23:20.494Z,2.40
2023-05-07T18:28:29.095Z,5.60
2023-05-07T18:33:36.244Z,7.15
2023-05-07T18:38:46.226Z,12.52
2023-05-07T18:43:58.243Z,18.58
2023-05-07T18:49:06.260Z,18.15
2023-05-07T18:54:15.449Z,14.95
2023-05-07T18:59:23.706Z,10.82
2023-05-07T19:04:32.498Z,9.80
2023-05-07T19:14:57.623Z,8.40
2023-05-07T19:25:21.330Z,6.47
2023-05-07T19:30:30.462Z,7.00
2023-05-07T19:35:39.726Z,6.30
2023-05-07T19:40:47.793Z,8.27
2023-05-07T19:45:56.900Z,9.13
2023-05-07T19:51:04.114Z,9.98
2023-05-07T19:56:14.393Z,11.57
2023-05-07T20:01:29.105Z,10.73
2023-05-07T20:06:35.868Z,17.80
2023-05-07T20:11:43.400Z,17.08
2023-05-07T20:16:51.781Z,16.30
2023-05-07T20:22:00.495Z,19.77
2023-05-07T20:27:07.566Z,22.30
2023-05-07T20:32:16.239Z,30.92
2023-05-07T20:37:25.905Z,18.75
2023-05-07T20:42:33.096Z,20.50
2023-05-07T20:47:43.221Z,15.80
2023-05-07T20:52:50.208Z,22.35
2023-05-07T20:57:57.369Z,19.52
2023-05-07T21:03:06.667Z,20.88
2023-05-07T21:08:13.560Z,16.88
2023-05-07T21:13:20.606Z,15.82
2023-05-07T21:18:31.167Z,21.33
2023-05-07T21:23:38.459Z,20.65
2023-05-07T21:28:45.638Z,25.52
2023-05-07T21:34:13.909Z,19.80
2023-05-07T21:39:23.011Z,18.05
2023-05-07T21:44:34.632Z,21.30
2023-05-07T21:49:43.137Z,24.52
2023-05-07T21:54:49.862Z,32.35
2023-05-07T21:59:56.380Z,24.42
2023-05-07T22:05:04.879Z,28.95
2023-05-07T22:10:13.766Z,31.05
2023-05-07T22:15:21.331Z,25.88
2023-05-07T22:20:30.358Z,22.42
2023-05-07T22:25:37.219Z,12.20
2023-05-07T22:30:44.162Z,17.20
2023-05-07T22:35:52.588Z,19.90
2023-05-07T22:41:00.445Z,7.53
2023-05-07T22:46:08.359Z,7.18
2023-05-07T22:51:17.448Z,7.47
2023-05-07T23:01:30.540Z,5.57
2023-05-07T23:06:38.995Z,11.18
2023-05-07T23:11:47.291Z,12.85
2023-05-07T23:16:53.993Z,22.58
2023-05-07T23:22:02.216Z,18.52
2023-05-07T23:27:09.568Z,19.48
2023-05-07T23:32:16.466Z,18.48
2023-05-07T23:37:26.288Z,17.87
2023-05-07T23:42:32.999Z,16.95
2023-05-07T23:47:39.710Z,18.67
2023-05-07T23:52:48.122Z,16.50
2023-05-07T23:57:54.787Z,20.15
